createdAt,value
2024-01-15T00:01:39.368Z,8.63
2024-01-15T00:04:09.214Z,8.45
2024-01-15T00:06:37.799Z,9.95
2024-01-15T00:09:07.748Z,8.85
2024-01-15T00:11:36.341Z,8.57
2024-01-15T00:14:05.164Z,8.20
2024-01-15T00:16:36.459Z,8.75
2024-01-15T00:19:05.109Z,8.68
2024-01-15T00:21:34.983Z,7.78
2024-01-15T00:24:03.591Z,8.55
2024-01-15T00:26:32.275Z,8.57
2024-01-15T00:29:01.322Z,8.63
2024-01-15T00:31:31.200Z,9.07
2024-01-15T00:34:00.064Z,8.85
2024-01-15T00:36:28.763Z,9.38
2024-01-15T00:38:58.657Z,9.52
2024-01-15T00:41:28.925Z,9.05
2024-01-15T00:43:57.412Z,8.40
2024-01-15T00:46:25.929Z,9.57
2024-01-15T00:48:54.503Z,9.30
2024-01-15T00:51:23.097Z,8.43
2024-01-15T00:53:51.579Z,9.85
2024-01-15T00:56:21.407Z,9.15
2024-01-15T00:58:49.855Z,9.00
2024-01-15T01:01:18.571Z,9.50
2024-01-15T01:03:47.185Z,8.95
2024-01-15T01:06:15.773Z,8.85
2024-01-15T01:08:44.447Z,9.52
2024-01-15T01:11:15.297Z,9.45
2024-01-15T01:13:45.145Z,9.23
2024-01-15T01:16:13.596Z,9.02
2024-01-15T01:18:42.246Z,9.07
2024-01-15T01:21:10.984Z,8.77
2024-01-15T01:23:39.511Z,9.07
2024-01-15T01:26:07.912Z,8.25
2024-01-15T01:28:36.435Z,9.55
2024-01-15T01:31:06.406Z,9.05
2024-01-15T01:33:35.021Z,9.52
2024-01-15T01:36:08.806Z,10.07
2024-01-15T01:38:37.497Z,9.15
2024-01-15T01:41:06.148Z,9.60
2024-01-15T01:43:34.772Z,10.20
2024-01-15T01:46:04.222Z,9.95
2024-01-15T01:48:34.524Z,9.85
2024-01-15T01:51:05.426Z,9.95
2024-01-15T01:53:36.922Z,9.63
2024-01-15T01:56:06.866Z,9.73
2024-01-15T01:58:36.317Z,10.25
2024-01-15T02:01:05.324Z,9.85
2024-01-15T02:03:35.909Z,11.20
2024-01-15T02:06:04.990Z,10.35
2024-01-15T02:08:33.845Z,10.52
2024-01-15T02:11:02.293Z,10.98
2024-01-15T02:13:30.874Z,10.52
2024-01-15T02:15:59.423Z,11.02
2024-01-15T02:18:28.011Z,10.80
2024-01-15T02:20:57.934Z,10.60
2024-01-15T02:23:27.745Z,10.88
2024-01-15T02:25:56.560Z,10.07
2024-01-15T02:28:25.037Z,11.30
2024-01-15T02:30:53.705Z,10.60
2024-01-15T02:33:22.458Z,10.50
2024-01-15T02:35:51.149Z,11.48
2024-01-15T02:38:19.717Z,10.57
2024-01-15T02:40:49.593Z,11.25
2024-01-15T02:43:20.173Z,11.77
2024-01-15T02:45:48.943Z,11.13
2024-01-15T02:48:17.679Z,11.75
2024-01-15T02:50:46.263Z,11.75
2024-01-15T02:53:14.983Z,11.07
2024-01-15T02:55:43.485Z,10.48
2024-01-15T02:58:13.317Z,12.07
2024-01-15T03:00:41.801Z,11.95
2024-01-15T03:03:10.628Z,11.95
2024-01-15T03:05:39.176Z,11.73
2024-01-15T03:08:08.057Z,10.38
2024-01-15T03:10:36.492Z,12.02
2024-01-15T03:13:05.334Z,11.88
2024-01-15T03:15:35.166Z,11.90
2024-01-15T03:18:07.878Z,11.45
2024-01-15T03:20:36.493Z,10.77
2024-01-15T03:23:05.334Z,10.88
2024-01-15T03:25:33.783Z,10.75
2024-01-15T03:28:02.233Z,10.73
2024-01-15T03:30:35.111Z,11.20
2024-01-15T03:33:03.745Z,10.05
2024-01-15T03:35:32.237Z,10.85
2024-01-15T03:38:00.723Z,11.30
2024-01-15T03:40:29.464Z,11.02
2024-01-15T03:42:58.038Z,11.57
2024-01-15T03:45:26.682Z,10.90
2024-01-15T03:47:56.546Z,10.77
2024-01-15T03:50:25.576Z,10.55
2024-01-15T03:52:54.034Z,11.30
2024-01-15T03:55:22.544Z,11.63
2024-01-15T03:57:51.071Z,11.55
2024-01-15T04:00:19.916Z,10.73
2024-01-15T04:02:48.367Z,11.85
2024-01-15T04:05:18.389Z,10.50
2024-01-15T04:07:49.274Z,11.57
2024-01-15T04:10:17.707Z,10.77
2024-01-15T04:12:47.247Z,10.55
2024-01-15T04:15:15.948Z,10.55
2024-01-15T04:17:44.488Z,11.30
2024-01-15T04:20:13.351Z,11.93
2024-01-15T04:22:43.201Z,10.20
2024-01-15T04:25:11.971Z,10.07
2024-01-15T04:27:41.054Z,9.80
2024-01-15T04:30:10.418Z,10.32
2024-01-15T04:32:42.373Z,9.57
2024-01-15T04:35:10.934Z,10.02
2024-01-15T04:37:39.388Z,10.35
2024-01-15T04:40:10.989Z,9.30
2024-01-15T04:42:39.593Z,9.10
2024-01-15T04:45:08.401Z,9.45
2024-01-15T04:47:37.918Z,9.35
2024-01-15T04:50:08.410Z,9.40
2024-01-15T04:52:36.885Z,9.40
2024-01-15T04:55:05.706Z,10.15
2024-01-15T04:57:35.541Z,8.70
2024-01-15T05:00:04.429Z,8.65
2024-01-15T05:02:32.911Z,9.25
2024-01-15T05:05:01.644Z,7.72
2024-01-15T05:07:30.094Z,8.27
2024-01-15T05:09:59.046Z,8.80
2024-01-15T05:12:27.566Z,8.05
2024-01-15T05:14:57.373Z,7.95
2024-01-15T05:17:26.076Z,8.32
2024-01-15T05:19:54.663Z,8.07
2024-01-15T05:22:25.758Z,8.30
2024-01-15T05:24:54.408Z,8.88
2024-01-15T05:27:22.967Z,8.55
2024-01-15T05:29:51.823Z,8.32
2024-01-15T05:32:21.689Z,9.75
2024-01-15T05:34:50.327Z,8.35
2024-01-15T05:37:18.838Z,8.82
2024-01-15T05:39:47.342Z,8.48
2024-01-15T05:42:15.849Z,8.82
2024-01-15T05:44:44.280Z,8.32
2024-01-15T05:47:12.740Z,8.57
2024-01-15T05:49:42.769Z,9.75
2024-01-15T05:52:11.272Z,9.23
2024-01-15T05:54:39.752Z,8.98
2024-01-15T05:57:08.223Z,9.65
2024-01-15T05:59:37.321Z,8.65
2024-01-15T06:02:06.357Z,10.93
2024-01-15T06:04:34.862Z,9.30
2024-01-15T06:07:05.121Z,9.68
2024-01-15T06:09:34.070Z,9.27
2024-01-15T06:12:02.599Z,7.93
2024-01-15T06:14:31.261Z,9.77
2024-01-15T06:16:59.704Z,9.45
2024-01-15T06:19:28.463Z,9.50
2024-01-15T06:21:57.135Z,8.88
2024-01-15T06:24:26.979Z,8.82
2024-01-15T06:26:55.444Z,9.00
2024-01-15T06:29:25.408Z,9.20
2024-01-15T06:31:54.008Z,9.32
2024-01-15T06:34:22.709Z,9.02
2024-01-15T06:36:51.396Z,8.13
2024-01-15T06:39:20.002Z,8.52
2024-01-15T06:41:49.856Z,9.05
2024-01-15T06:44:18.313Z,8.77
2024-01-15T06:46:47.254Z,9.10
2024-01-15T06:49:15.846Z,9.02
2024-01-15T06:51:46.329Z,10.02
2024-01-15T06:54:16.319Z,9.25
2024-01-15T06:56:44.830Z,9.25
2024-01-15T06:59:17.593Z,9.68
2024-01-15T07:01:47.778Z,9.45
2024-01-15T07:04:16.368Z,9.32
2024-01-15T07:06:44.961Z,8.90
2024-01-15T07:09:13.490Z,9.85
2024-01-15T07:11:46.772Z,10.18
2024-01-15T07:14:16.682Z,9.40
2024-01-15T07:16:47.990Z,9.65
2024-01-15T07:19:17.161Z,10.27
2024-01-15T07:21:45.873Z,10.15
2024-01-15T07:24:14.538Z,9.82
2024-01-15T07:26:43.199Z,10.55
2024-01-15T07:29:11.682Z,9.45
2024-01-15T07:31:41.557Z,9.32
2024-01-15T07:34:10.322Z,9.27
2024-01-15T07:36:38.884Z,10.02
2024-01-15T07:39:07.580Z,10.05
2024-01-15T07:41:36.065Z,9.52
2024-01-15T07:44:05.968Z,9.68
2024-01-15T07:46:34.498Z,9.38
2024-01-15T07:49:04.728Z,9.15
2024-01-15T07:51:33.859Z,9.88
2024-01-15T07:54:02.397Z,9.90
2024-01-15T07:56:30.958Z,9.52
2024-01-15T07:58:59.418Z,9.18
2024-01-15T08:01:28.054Z,9.55
2024-01-15T08:03:56.746Z,9.20
2024-01-15T08:06:26.681Z,8.43
2024-01-15T08:08:55.466Z,9.32
2024-01-15T08:11:24.048Z,10.15
2024-01-15T08:13:53.157Z,8.85
2024-01-15T08:16:21.635Z,8.65
2024-01-15T08:18:50.348Z,8.88
2024-01-15T08:21:19.064Z,8.35
2024-01-15T08:23:48.887Z,7.70
2024-01-15T08:26:17.360Z,7.75
2024-01-15T08:28:45.899Z,7.78
2024-01-15T08:31:15.295Z,8.98
2024-01-15T08:33:44.204Z,7.68
2024-01-15T08:36:13.119Z,8.18
2024-01-15T08:38:41.839Z,7.65
2024-01-15T08:41:12.266Z,7.53
2024-01-15T08:43:40.958Z,7.90
2024-01-15T08:46:09.647Z,7.18
2024-01-15T08:48:38.372Z,9.00
2024-01-15T08:51:07.087Z,8.75
2024-01-15T08:53:35.607Z,8.52
2024-01-15T08:56:04.161Z,8.07
2024-01-15T08:58:33.998Z,8.20
2024-01-15T09:01:02.877Z,8.15
2024-01-15T09:03:32.077Z,8.27
2024-01-15T09:06:00.700Z,7.93
2024-01-15T09:08:29.513Z,8.18
2024-01-15T09:10:58.127Z,8.82
2024-01-15T09:13:26.757Z,7.93
2024-01-15T09:15:56.616Z,7.65
2024-01-15T09:18:25.258Z,8.05
2024-01-15T09:20:53.792Z,8.68
2024-01-15T09:23:22.291Z,8.13
2024-01-15T09:25:50.813Z,8.25
2024-01-15T09:28:19.416Z,7.38
2024-01-15T09:30:48.399Z,7.10
2024-01-15T09:33:18.375Z,7.90
2024-01-15T09:35:47.380Z,6.68
2024-01-15T09:38:16.868Z,6.55
2024-01-15T09:40:47.592Z,6.60
2024-01-15T09:43:17.444Z,6.50
2024-01-15T09:45:47.053Z,6.65
2024-01-15T09:48:15.900Z,6.10
2024-01-15T09:50:46.119Z,6.00
2024-01-15T09:53:17.072Z,6.05
2024-01-15T09:55:45.920Z,6.13
2024-01-15T09:58:15.049Z,6.38
2024-01-15T10:00:44.993Z,6.28
2024-01-15T10:03:13.964Z,5.90
2024-01-15T10:05:42.595Z,5.55
2024-01-15T10:08:13.311Z,5.35
2024-01-15T10:10:41.777Z,5.63
2024-01-15T10:13:10.784Z,5.22
2024-01-15T10:15:40.579Z,5.38
2024-01-15T10:18:09.276Z,5.45
2024-01-15T10:20:37.792Z,5.78
2024-01-15T10:23:06.624Z,6.40
2024-01-15T10:25:37.768Z,6.07
2024-01-15T10:28:07.432Z,5.97
2024-01-15T10:30:36.357Z,6.40
2024-01-15T10:33:06.384Z,5.95
2024-01-15T10:35:36.515Z,6.60
2024-01-15T10:38:05.445Z,6.65
2024-01-15T10:40:34.649Z,6.70
2024-01-15T10:43:05.346Z,7.15
2024-01-15T10:45:33.927Z,7.20
2024-01-15T10:48:03.736Z,7.40
2024-01-15T10:50:34.124Z,6.85
2024-01-15T10:53:03.691Z,7.15
2024-01-15T10:55:33.548Z,5.65
2024-01-15T10:58:02.910Z,6.10
2024-01-15T11:00:33.547Z,5.82
2024-01-15T11:03:03.786Z,6.80
2024-01-15T11:05:35.826Z,5.80
2024-01-15T11:08:04.531Z,5.75
2024-01-15T11:10:43.869Z,4.82
2024-01-15T11:13:16.260Z,4.40
2024-01-15T11:16:02.394Z,5.35
2024-01-15T11:18:31.985Z,5.43
2024-01-15T11:21:28.609Z,4.85
2024-01-15T11:23:59.060Z,5.22
2024-01-15T11:26:36.990Z,6.13
2024-01-15T11:29:07.814Z,5.35
2024-01-15T11:32:00.853Z,5.47
2024-01-15T11:35:02.907Z,6.05
2024-01-15T11:37:52.216Z,6.18
2024-01-15T11:40:21.758Z,6.20
2024-01-15T11:42:53.378Z,6.80
2024-01-15T11:45:22.651Z,6.53
2024-01-15T11:48:17.289Z,6.85
2024-01-15T11:50:47.432Z,6.40
2024-01-15T11:53:23.661Z,5.97
2024-01-15T11:55:54.703Z,6.32
2024-01-15T11:58:23.518Z,6.75
2024-01-15T12:00:53.730Z,6.40
2024-01-15T12:03:24.708Z,6.63
2024-01-15T12:05:54.862Z,7.00
2024-01-15T12:08:24.047Z,8.30
2024-01-15T12:10:52.706Z,7.55
2024-01-15T12:13:22.170Z,6.60
2024-01-15T12:15:51.661Z,7.82
2024-01-15T12:18:21.629Z,7.28
2024-01-15T12:20:53.007Z,7.63
2024-01-15T12:23:21.463Z,7.90
2024-01-15T12:25:51.228Z,7.72
2024-01-15T12:28:20.121Z,7.80
2024-01-15T12:30:51.385Z,7.72
2024-01-15T12:33:22.010Z,7.15
2024-01-15T12:35:55.303Z,6.70
2024-01-15T12:38:23.865Z,6.90
2024-01-15T12:40:52.361Z,6.70
2024-01-15T12:43:21.174Z,7.18
2024-01-15T12:45:49.807Z,6.95
2024-01-15T12:48:19.252Z,6.55
2024-01-15T12:50:49.259Z,6.68
2024-01-15T12:53:19.256Z,6.13
2024-01-15T12:55:48.514Z,6.63
2024-01-15T12:58:20.120Z,5.88
2024-01-15T13:00:49.648Z,5.35
2024-01-15T13:03:18.331Z,5.60
2024-01-15T13:05:47.353Z,5.97
2024-01-15T13:08:16.091Z,5.50
2024-01-15T13:10:45.932Z,5.50
2024-01-15T13:13:14.440Z,5.22
2024-01-15T13:15:43.005Z,5.22
2024-01-15T13:18:11.805Z,4.88
2024-01-15T13:20:40.402Z,5.30
2024-01-15T13:23:08.978Z,5.00
2024-01-15T13:25:39.152Z,4.38
2024-01-15T13:28:09.520Z,4.95
2024-01-15T13:30:38.542Z,4.35
2024-01-15T13:33:07.380Z,4.45
2024-01-15T13:35:37.040Z,4.15
2024-01-15T13:38:05.922Z,3.72
2024-01-15T13:40:34.373Z,4.53
2024-01-15T13:43:03.002Z,4.05
2024-01-15T13:45:32.891Z,4.20
2024-01-15T13:48:01.379Z,4.40
2024-01-15T13:50:30.055Z,4.15
2024-01-15T13:52:58.758Z,4.30
2024-01-15T13:55:27.229Z,4.47
2024-01-15T13:57:56.011Z,4.25
2024-01-15T14:00:24.826Z,4.55
2024-01-15T14:02:54.840Z,4.00
2024-01-15T14:05:23.334Z,4.45
2024-01-15T14:07:51.912Z,4.25
2024-01-15T14:10:20.336Z,5.00
2024-01-15T14:12:51.236Z,4.00
2024-01-15T14:15:22.108Z,3.95
2024-01-15T14:17:50.771Z,4.30
2024-01-15T14:20:22.891Z,3.63
2024-01-15T14:22:51.810Z,3.47
2024-01-15T14:25:20.652Z,4.05
2024-01-15T14:27:49.593Z,3.95
2024-01-15T14:30:18.731Z,3.33
2024-01-15T14:32:47.219Z,3.78
2024-01-15T14:35:15.778Z,3.92
2024-01-15T14:37:46.703Z,3.65
2024-01-15T14:40:17.821Z,3.50
2024-01-15T14:42:47.082Z,3.20
2024-01-15T14:45:15.794Z,2.80
2024-01-15T14:47:45.345Z,2.90
2024-01-15T14:50:14.306Z,2.70
2024-01-15T14:52:43.448Z,2.33
2024-01-15T14:55:13.483Z,2.72
2024-01-15T14:57:42.146Z,2.15
2024-01-15T15:00:11.044Z,2.50
2024-01-15T15:02:39.658Z,2.60
2024-01-15T15:05:09.187Z,2.70
2024-01-15T15:07:38.442Z,2.63
2024-01-15T15:10:08.238Z,2.65
2024-01-15T15:12:38.043Z,3.20
2024-01-15T15:15:10.273Z,3.08
2024-01-15T15:17:40.982Z,3.42
2024-01-15T15:20:10.924Z,3.35
2024-01-15T15:22:39.551Z,3.40
2024-01-15T15:25:09.702Z,3.78
2024-01-15T15:27:40.927Z,3.42
2024-01-15T15:30:10.261Z,2.83
2024-01-15T15:32:38.909Z,3.38
2024-01-15T15:35:08.803Z,3.78
2024-01-15T15:37:37.717Z,3.40
2024-01-15T15:40:10.109Z,3.40
2024-01-15T15:42:40.545Z,2.95
2024-01-15T15:45:10.682Z,3.35
2024-01-15T15:47:39.761Z,3.40
2024-01-15T15:50:09.612Z,3.53
2024-01-15T15:52:38.236Z,3.30
2024-01-15T15:55:08.880Z,3.83
2024-01-15T15:57:38.314Z,3.70
2024-01-15T16:00:09.801Z,3.58
2024-01-15T16:02:40.964Z,4.10
2024-01-15T16:05:11.011Z,3.70
2024-01-15T16:07:39.955Z,3.60
2024-01-15T16:10:10.665Z,3.17
2024-01-15T16:12:40.081Z,3.25
2024-01-15T16:15:20.204Z,3.40
2024-01-15T16:23:17.098Z,3.72
2024-01-15T16:23:31.465Z,3.10
2024-01-15T16:24:04.304Z,3.58
2024-01-15T16:26:14.954Z,4.13
2024-01-15T16:28:43.594Z,4.20
2024-01-15T16:31:13.428Z,4.15
2024-01-15T16:33:43.701Z,5.13
2024-01-15T16:36:12.340Z,4.18
2024-01-15T16:38:41.715Z,3.85
2024-01-15T16:41:10.381Z,4.30
2024-01-15T16:43:38.852Z,4.00
2024-01-15T16:46:07.348Z,4.00
2024-01-15T16:48:37.179Z,4.95
2024-01-15T16:51:06.569Z,4.03
2024-01-15T16:53:35.080Z,4.30
2024-01-15T16:56:05.016Z,3.90
2024-01-15T16:58:33.491Z,4.05
2024-01-15T17:01:02.227Z,3.97
2024-01-15T17:03:30.897Z,3.65
2024-01-15T17:06:00.989Z,3.50
2024-01-15T17:08:29.490Z,3.63
2024-01-15T17:11:00.030Z,3.53
2024-01-15T17:13:29.949Z,3.38
2024-01-15T17:15:58.394Z,3.30
2024-01-15T17:18:26.931Z,3.72
2024-01-15T17:20:55.489Z,3.05
2024-01-15T17:23:25.479Z,3.30
2024-01-15T17:25:53.957Z,3.42
2024-01-15T17:28:24.407Z,3.05
2024-01-15T17:30:53.287Z,3.13
2024-01-15T17:33:21.801Z,3.50
2024-01-15T17:35:54.085Z,3.70
2024-01-15T17:38:22.781Z,3.35
2024-01-15T17:40:53.178Z,3.80
2024-01-15T17:43:23.156Z,3.50
2024-01-15T17:45:53.896Z,3.40
2024-01-15T17:48:22.404Z,2.83
2024-01-15T17:50:52.717Z,3.00
2024-01-15T17:53:21.260Z,3.42
2024-01-15T17:55:51.796Z,3.28
2024-01-15T17:58:20.953Z,3.80
2024-01-15T18:00:49.608Z,3.33
2024-01-15T18:03:18.244Z,3.53
2024-01-15T18:05:46.737Z,3.78
2024-01-15T18:08:16.463Z,3.35
2024-01-15T18:10:45.403Z,3.58
2024-01-15T18:13:15.177Z,3.20
2024-01-15T18:15:43.799Z,3.50
2024-01-15T18:18:12.379Z,3.10
2024-01-15T18:20:40.939Z,3.85
2024-01-15T18:23:09.527Z,3.03
2024-01-15T18:25:39.733Z,3.30
2024-01-15T18:28:08.503Z,2.90
2024-01-15T18:30:38.610Z,3.17
2024-01-15T18:33:08.521Z,3.17
2024-01-15T18:35:38.173Z,2.90
2024-01-15T18:38:07.175Z,3.40
2024-01-15T18:40:37.982Z,3.10
2024-01-15T18:43:06.587Z,3.50
2024-01-15T18:45:35.989Z,3.45
2024-01-15T18:48:07.557Z,3.17
2024-01-15T18:50:36.267Z,3.33
2024-01-15T18:53:04.917Z,3.22
2024-01-15T18:55:33.394Z,3.03
2024-01-15T18:58:01.939Z,3.42
2024-01-15T19:00:30.390Z,3.45
2024-01-15T19:02:59.575Z,3.17
2024-01-15T19:05:31.589Z,3.08
2024-01-15T19:08:00.518Z,3.42
2024-01-15T19:10:29.070Z,3.10
2024-01-15T19:12:58.409Z,3.47
2024-01-15T19:15:27.010Z,3.63
2024-01-15T19:17:55.515Z,3.30
2024-01-15T19:20:24.092Z,3.30
2024-01-15T19:22:54.007Z,3.40
2024-01-15T19:25:22.559Z,3.45
2024-01-15T19:27:51.057Z,3.50
2024-01-15T19:30:19.693Z,4.30
2024-01-15T19:32:48.315Z,3.13
2024-01-15T19:35:17.007Z,3.53
2024-01-15T19:37:45.444Z,3.05
2024-01-15T19:40:15.804Z,3.42
2024-01-15T19:42:44.878Z,3.67
2024-01-15T19:45:13.446Z,3.60
2024-01-15T19:47:42.177Z,3.80
2024-01-15T19:50:11.298Z,3.90
2024-01-15T19:52:40.474Z,3.67
2024-01-15T19:55:09.580Z,4.47
2024-01-15T19:57:39.796Z,3.83
2024-01-15T20:00:13.059Z,4.65
2024-01-15T20:02:42.611Z,4.40
2024-01-15T20:05:14.479Z,4.05
2024-01-15T20:07:43.157Z,4.18
2024-01-15T20:10:11.882Z,3.90
2024-01-15T20:12:44.432Z,4.10
2024-01-15T20:15:13.007Z,4.35
2024-01-15T20:17:42.499Z,4.13
2024-01-15T20:20:12.424Z,5.32
2024-01-15T20:22:41.239Z,5.07
2024-01-15T20:25:09.949Z,5.20
2024-01-15T20:27:37.540Z,4.43
2024-01-15T20:30:09.202Z,5.00
2024-01-15T20:32:38.465Z,4.47
2024-01-15T20:35:08.327Z,4.70
2024-01-15T20:37:36.922Z,4.22
2024-01-15T20:40:06.283Z,4.50
2024-01-15T20:42:34.851Z,5.05
2024-01-15T20:45:04.284Z,5.00
2024-01-15T20:47:34.478Z,5.07
2024-01-15T20:50:03.316Z,5.10
2024-01-15T20:52:31.842Z,5.50
2024-01-15T20:55:00.299Z,5.47
2024-01-15T20:57:28.752Z,4.78
2024-01-15T20:59:57.342Z,5.50
2024-01-15T21:02:25.940Z,5.05
2024-01-15T21:04:55.867Z,5.00
2024-01-15T21:07:24.315Z,4.88
2024-01-15T21:09:52.761Z,4.63
2024-01-15T21:12:22.634Z,4.65
2024-01-15T21:14:53.159Z,4.82
2024-01-15T21:17:22.124Z,4.60
2024-01-15T21:19:56.439Z,4.75
2024-01-15T21:22:26.307Z,5.15
2024-01-15T21:24:54.763Z,4.72
2024-01-15T21:27:24.086Z,4.28
2024-01-15T21:29:52.535Z,4.72
2024-01-15T21:32:21.193Z,4.30
2024-01-15T21:34:49.643Z,3.97
2024-01-15T21:37:18.221Z,3.95
2024-01-15T21:39:47.977Z,3.75
2024-01-15T21:42:16.866Z,4.72
2024-01-15T21:44:45.751Z,4.00
2024-01-15T21:47:14.279Z,4.35
2024-01-15T21:49:43.954Z,4.28
2024-01-15T21:52:12.406Z,4.25
2024-01-15T21:54:40.876Z,4.20
2024-01-15T21:57:10.678Z,4.20
2024-01-15T21:59:39.194Z,4.85
2024-01-15T22:02:09.727Z,4.18
2024-01-15T22:04:38.819Z,3.88
2024-01-15T22:07:07.516Z,4.22
2024-01-15T22:09:35.964Z,4.45
2024-01-15T22:12:04.796Z,3.90
2024-01-15T22:14:34.569Z,4.05
2024-01-15T22:17:03.092Z,3.72
2024-01-15T22:19:34.768Z,4.10
2024-01-15T22:22:03.312Z,4.07
2024-01-15T22:24:31.762Z,4.35
2024-01-15T22:27:00.188Z,4.38
2024-01-15T22:29:28.882Z,5.10
2024-01-15T22:31:58.755Z,4.88
2024-01-15T22:34:27.342Z,4.88
2024-01-15T22:36:55.878Z,4.72
2024-01-15T22:39:25.123Z,5.53
2024-01-15T22:41:53.664Z,5.10
2024-01-15T22:44:22.372Z,5.10
2024-01-15T22:46:50.870Z,5.30
2024-01-15T22:49:20.662Z,5.28
2024-01-15T22:51:49.339Z,5.25
2024-01-15T22:54:18.208Z,5.03
2024-01-15T22:56:46.797Z,4.68
2024-01-15T22:59:22.831Z,5.82
2024-01-15T23:01:51.764Z,5.55
2024-01-15T23:04:21.535Z,5.80
2024-01-15T23:06:49.991Z,5.47
2024-01-15T23:09:18.722Z,6.20
2024-01-15T23:11:48.968Z,6.20
2024-01-15T23:14:17.687Z,6.03
2024-01-15T23:16:46.129Z,6.15
2024-01-15T23:19:14.724Z,5.75
2024-01-15T23:21:44.530Z,6.45
2024-01-15T23:24:12.960Z,6.10
2024-01-15T23:26:41.449Z,6.28
2024-01-15T23:29:09.948Z,6.68
2024-01-15T23:31:41.359Z,6.72
2024-01-15T23:34:10.467Z,6.30
2024-01-15T23:36:38.898Z,6.82
2024-01-15T23:39:08.900Z,6.32
2024-01-15T23:41:37.454Z,6.30
2024-01-15T23:44:06.275Z,6.95
2024-01-15T23:46:34.984Z,6.70
2024-01-15T23:49:03.491Z,6.35
2024-01-15T23:51:32.022Z,6.50
2024-01-15T23:54:00.491Z,6.25
2024-01-15T23:56:30.742Z,5.82
2024-01-15T23:58:59.265Z,6.65
